createdAt,value
2018-01-13T00:00:53.164Z,101671.34
2018-01-13T00:03:20.773Z,101676.11
2018-01-13T00:05:48.268Z,101677.50
2018-01-13T00:08:15.787Z,101679.17
2018-01-13T00:10:43.258Z,101680.03
2018-01-13T00:13:10.761Z,101677.84
2018-01-13T00:15:38.254Z,101673.12
2018-01-13T00:18:06.880Z,101673.08
2018-01-13T00:20:34.380Z,101670.34
2018-01-13T00:23:02.225Z,101671.92
2018-01-13T00:25:29.750Z,101683.87
2018-01-13T00:27:57.518Z,101677.50
2018-01-13T00:30:25.187Z,101686.92
2018-01-13T00:32:53.391Z,101685.00
2018-01-13T00:35:21.380Z,101684.10
2018-01-13T00:37:48.877Z,101682.98
2018-01-13T00:40:16.398Z,101680.16
2018-01-13T00:42:43.885Z,101677.11
2018-01-13T00:45:11.418Z,101673.64
2018-01-13T00:47:38.963Z,101674.27
2018-01-13T00:50:06.467Z,101677.13
2018-01-13T00:52:33.968Z,101676.44
2018-01-13T00:55:01.449Z,101670.45
2018-01-13T00:57:28.943Z,101670.45
2018-01-13T00:59:56.435Z,101670.15
2018-01-13T01:02:24.103Z,101675.61
2018-01-13T01:04:51.750Z,101675.02
2018-01-13T01:07:19.443Z,101677.66
2018-01-13T01:09:46.982Z,101671.37
2018-01-13T01:12:14.466Z,101679.47
2018-01-13T01:14:41.944Z,101673.50
2018-01-13T01:17:09.439Z,101680.66
2018-01-13T01:19:36.954Z,101680.66
2018-01-13T01:22:04.427Z,101681.59
2018-01-13T01:24:31.952Z,101676.12
2018-01-13T01:26:59.448Z,101679.54
2018-01-13T01:29:26.995Z,101679.24
2018-01-13T01:32:08.669Z,101679.45
2018-01-13T01:34:36.166Z,101683.31
2018-01-13T01:37:03.747Z,101679.88
2018-01-13T01:39:31.286Z,101683.31
2018-01-13T01:41:58.855Z,101685.36
2018-01-13T01:44:26.400Z,101691.11
2018-01-13T01:46:53.913Z,101695.05
2018-01-13T01:49:21.488Z,101689.39
2018-01-13T01:51:48.996Z,101689.70
2018-01-13T01:54:17.288Z,101693.75
2018-01-13T01:56:44.775Z,101686.57
2018-01-13T01:59:12.258Z,101693.84
2018-01-13T02:01:39.780Z,101687.06
2018-01-13T02:04:07.267Z,101689.80
2018-01-13T02:06:34.756Z,101692.75
2018-01-13T02:09:03.232Z,101690.92
2018-01-13T02:11:30.699Z,101691.34
2018-01-13T02:13:58.302Z,101694.17
2018-01-13T02:16:25.848Z,101694.45
2018-01-13T02:18:53.419Z,101694.08
2018-01-13T02:21:20.918Z,101694.97
2018-01-13T02:23:49.100Z,101694.36
2018-01-13T02:26:16.601Z,101695.98
2018-01-13T02:28:44.089Z,101695.77
2018-01-13T02:31:12.867Z,101700.95
2018-01-13T02:33:40.427Z,101697.81
2018-01-13T02:36:08.019Z,101693.66
2018-01-13T02:38:35.497Z,101687.68
2018-01-13T02:41:03.049Z,101693.05
2018-01-13T02:43:35.672Z,101687.50
2018-01-13T02:46:03.226Z,101684.35
2018-01-13T02:48:30.714Z,101689.51
2018-01-13T02:50:58.245Z,101686.67
2018-01-13T02:53:30.797Z,101682.72
2018-01-13T02:55:58.284Z,101679.99
2018-01-13T02:58:25.863Z,101679.20
2018-01-13T03:00:53.379Z,101684.05
2018-01-13T03:03:20.875Z,101680.62
2018-01-13T03:05:48.703Z,101680.52
2018-01-13T03:08:17.465Z,101674.04
2018-01-13T03:10:44.926Z,101677.67
2018-01-13T03:13:12.458Z,101672.72
2018-01-13T03:15:40.053Z,101671.52
2018-01-13T03:18:07.896Z,101664.84
2018-01-13T03:20:36.275Z,101667.57
2018-01-13T03:23:08.719Z,101665.95
2018-01-13T03:25:36.275Z,101665.85
2018-01-13T03:28:03.734Z,101663.13
2018-01-13T03:30:31.203Z,101669.28
2018-01-13T03:32:58.805Z,101665.54
2018-01-13T03:35:26.555Z,101669.00
2018-01-13T03:37:54.025Z,101670.80
2018-01-13T03:40:21.563Z,101671.00
2018-01-13T03:42:49.064Z,101667.76
2018-01-13T03:45:16.591Z,101668.38
2018-01-13T03:47:44.195Z,101656.84
2018-01-13T03:50:11.755Z,101661.01
2018-01-13T03:52:39.253Z,101663.64
2018-01-13T03:55:07.013Z,101658.48
2018-01-13T03:57:34.542Z,101655.33
2018-01-13T04:00:02.827Z,101654.82
2018-01-13T04:02:30.341Z,101655.55
2018-01-13T04:04:57.843Z,101654.22
2018-01-13T04:07:25.318Z,101649.28
2018-01-13T04:09:52.800Z,101650.28
2018-01-13T04:12:20.314Z,101650.08
2018-01-13T04:14:47.791Z,101650.87
2018-01-13T04:17:15.285Z,101640.34
2018-01-13T04:19:42.862Z,101644.19
2018-01-13T04:22:10.628Z,101648.77
2018-01-13T04:24:38.133Z,101651.49
2018-01-13T04:27:06.183Z,101653.13
2018-01-13T04:29:33.676Z,101649.08
2018-01-13T04:32:01.200Z,101646.95
2018-01-13T04:34:28.684Z,101647.15
2018-01-13T04:36:56.175Z,101646.25
2018-01-13T04:39:23.673Z,101640.16
2018-01-13T04:41:51.169Z,101639.16
2018-01-13T04:44:18.709Z,101634.89
2018-01-13T04:46:46.254Z,101645.30
2018-01-13T04:49:13.786Z,101641.88
2018-01-13T04:51:41.278Z,101636.63
2018-01-13T04:54:08.756Z,101645.22
2018-01-13T04:56:36.232Z,101643.52
2018-01-13T04:59:03.771Z,101645.73
2018-01-13T05:01:31.276Z,101641.28
2018-01-13T05:03:58.751Z,101638.75
2018-01-13T05:06:26.335Z,101637.63
2018-01-13T05:08:53.861Z,101635.73
2018-01-13T05:11:21.386Z,101641.27
2018-01-13T05:13:48.928Z,101644.22
2018-01-13T05:16:16.386Z,101650.48
2018-01-13T05:18:43.845Z,101652.41
2018-01-13T05:21:11.420Z,101653.42
2018-01-13T05:26:31.954Z,101644.73
2018-01-13T05:28:59.594Z,101648.77
2018-01-13T05:31:27.157Z,101651.81
2018-01-13T05:33:54.855Z,101651.51
2018-01-13T05:36:23.304Z,101654.55
2018-01-13T05:38:51.036Z,101658.70
2018-01-13T05:41:18.539Z,101659.39
2018-01-13T05:43:46.442Z,101658.28
2018-01-13T05:46:13.961Z,101659.70
2018-01-13T05:48:42.270Z,101661.43
2018-01-13T05:51:10.701Z,101670.94
2018-01-13T05:53:47.883Z,101672.05
2018-01-13T05:56:15.369Z,101672.12
2018-01-13T05:58:42.899Z,101670.61
2018-01-13T06:01:10.430Z,101677.39
2018-01-13T06:03:37.917Z,101675.48
2018-01-13T06:06:06.399Z,101674.17
2018-01-13T06:08:33.932Z,101675.56
2018-01-13T06:11:01.442Z,101678.81
2018-01-13T06:13:38.640Z,101674.97
2018-01-13T06:16:06.300Z,101677.91
2018-01-13T06:18:33.765Z,101674.56
2018-01-13T06:21:01.269Z,101674.25
2018-01-13T06:23:28.866Z,101673.55
2018-01-13T06:25:56.339Z,101671.75
2018-01-13T06:28:23.810Z,101668.19
2018-01-13T06:30:51.352Z,101669.72
2018-01-13T06:33:19.624Z,101669.72
2018-01-13T06:35:47.161Z,101664.74
2018-01-13T06:38:14.647Z,101670.52
2018-01-13T06:40:42.419Z,101666.98
2018-01-13T06:43:10.628Z,101672.42
2018-01-13T06:45:39.221Z,101669.89
2018-01-13T06:48:07.998Z,101671.72
2018-01-13T06:50:35.486Z,101669.99
2018-01-13T06:53:02.953Z,101667.27
2018-01-13T06:55:30.531Z,101672.94
2018-01-13T06:57:58.530Z,101676.36
2018-01-13T07:00:26.025Z,101670.99
2018-01-13T07:02:53.494Z,101676.66
2018-01-13T07:05:20.966Z,101675.87
2018-01-13T07:07:48.492Z,101679.98
2018-01-13T07:10:16.160Z,101687.17
2018-01-13T07:12:43.701Z,101686.65
2018-01-13T07:15:11.175Z,101681.30
2018-01-13T07:17:39.285Z,101690.17
2018-01-13T07:20:06.796Z,101683.70
2018-01-13T07:22:34.409Z,101675.14
2018-01-13T07:25:01.903Z,101682.92
2018-01-13T07:27:29.415Z,101684.55
2018-01-13T07:29:56.918Z,101676.14
2018-01-13T07:32:24.456Z,101676.77
2018-01-13T07:34:51.941Z,101687.66
2018-01-13T07:37:20.446Z,101691.31
2018-01-13T07:39:48.055Z,101690.48
2018-01-13T07:42:15.519Z,101687.64
2018-01-13T07:44:43.012Z,101689.06
2018-01-13T07:47:10.547Z,101691.20
2018-01-13T07:49:38.154Z,101688.06
2018-01-13T07:52:05.702Z,101684.03
2018-01-13T07:54:33.252Z,101678.46
2018-01-13T07:57:00.786Z,101690.80
2018-01-13T07:59:28.339Z,101684.31
2018-01-13T08:01:55.976Z,101684.91
2018-01-13T08:04:23.539Z,101680.39
2018-01-13T08:06:51.109Z,101683.70
2018-01-13T08:09:18.678Z,101685.23
2018-01-13T08:11:46.182Z,101681.19
2018-01-13T08:14:13.669Z,101676.45
2018-01-13T08:16:41.155Z,101674.71
2018-01-13T08:19:08.683Z,101682.48
2018-01-13T08:21:36.214Z,101686.73
2018-01-13T08:24:03.766Z,101683.06
2018-01-13T08:26:31.256Z,101685.53
2018-01-13T08:28:58.796Z,101678.34
2018-01-13T08:31:26.357Z,101686.05
2018-01-13T08:33:54.897Z,101684.11
2018-01-13T08:36:22.455Z,101686.90
2018-01-13T08:38:50.562Z,101688.63
2018-01-13T08:41:18.048Z,101686.98
2018-01-13T08:43:45.886Z,101687.20
2018-01-13T08:46:13.590Z,101690.55
2018-01-13T08:48:41.177Z,101688.70
2018-01-13T08:51:08.767Z,101677.00
2018-01-13T08:53:36.471Z,101683.00
2018-01-13T08:56:03.935Z,101682.59
2018-01-13T08:58:31.411Z,101693.32
2018-01-13T09:00:59.165Z,101688.18
2018-01-13T09:03:26.955Z,101675.04
2018-01-13T09:05:54.703Z,101680.02
2018-01-13T09:08:22.453Z,101679.40
2018-01-13T09:10:49.940Z,101688.11
2018-01-13T09:13:17.546Z,101680.02
2018-01-13T09:15:45.067Z,101693.47
2018-01-13T09:18:12.602Z,101691.44
2018-01-13T09:20:40.206Z,101694.69
2018-01-13T09:23:07.790Z,101691.44
2018-01-13T09:25:35.290Z,101694.05
2018-01-13T09:28:02.846Z,101693.73
2018-01-13T09:30:31.245Z,101695.84
2018-01-13T09:32:58.887Z,101703.61
2018-01-13T09:35:26.445Z,101704.80
2018-01-13T09:37:54.027Z,101699.13
2018-01-13T09:40:22.364Z,101702.84
2018-01-13T09:42:49.833Z,101700.20
2018-01-13T09:45:17.744Z,101705.45
2018-01-13T09:47:45.238Z,101711.02
2018-01-13T09:50:12.828Z,101708.19
2018-01-13T09:52:40.361Z,101711.41
2018-01-13T09:55:07.872Z,101706.97
2018-01-13T09:57:35.728Z,101703.30
2018-01-13T10:00:03.216Z,101700.08
2018-01-13T10:02:35.722Z,101702.39
2018-01-13T10:05:04.397Z,101700.99
2018-01-13T10:07:31.914Z,101691.37
2018-01-13T10:10:01.161Z,101692.20
2018-01-13T10:12:28.780Z,101681.20
2018-01-13T10:14:56.406Z,101688.75
2018-01-13T10:17:23.984Z,101690.11
2018-01-13T10:19:52.243Z,101684.64
2018-01-13T10:22:19.731Z,101690.70
2018-01-13T10:24:47.284Z,101684.13
2018-01-13T10:27:15.129Z,101684.80
2018-01-13T10:29:42.844Z,101679.66
2018-01-13T10:32:10.354Z,101676.03
2018-01-13T10:34:37.868Z,101677.87
2018-01-13T10:37:05.370Z,101669.27
2018-01-13T10:39:32.929Z,101673.08
2018-01-13T10:42:01.736Z,101667.56
2018-01-13T10:44:29.296Z,101672.52
2018-01-13T10:46:56.904Z,101672.31
2018-01-13T10:49:24.503Z,101676.55
2018-01-13T10:51:52.046Z,101670.68
2018-01-13T10:54:19.538Z,101673.20
2018-01-13T10:56:47.032Z,101673.52
2018-01-13T10:59:14.530Z,101680.61
2018-01-13T11:01:42.185Z,101679.28
2018-01-13T11:04:09.662Z,101673.39
2018-01-13T11:06:38.179Z,101674.69
2018-01-13T11:09:06.742Z,101675.61
2018-01-13T11:11:34.221Z,101671.98
2018-01-13T11:14:01.969Z,101671.29
2018-01-13T11:16:29.469Z,101670.66
2018-01-13T11:18:57.143Z,101663.10
2018-01-13T11:21:24.805Z,101667.52
2018-01-13T11:23:52.343Z,101675.44
2018-01-13T11:26:19.914Z,101670.98
2018-01-13T11:28:47.474Z,101670.25
2018-01-13T11:31:15.027Z,101669.47
2018-01-13T11:33:42.585Z,101667.75
2018-01-13T11:36:10.142Z,101665.92
2018-01-13T11:38:37.667Z,101665.62
2018-01-13T11:41:05.187Z,101666.73
2018-01-13T11:43:32.803Z,101664.98
2018-01-13T11:46:01.497Z,101672.55
2018-01-13T11:48:29.243Z,101662.47
2018-01-13T11:50:56.803Z,101666.63
2018-01-13T11:53:24.950Z,101667.64
2018-01-13T11:55:52.546Z,101660.89
2018-01-13T11:58:20.041Z,101658.95
2018-01-13T12:00:47.622Z,101659.47
2018-01-13T12:03:15.250Z,101664.11
2018-01-13T12:05:42.812Z,101648.98
2018-01-13T12:08:10.372Z,101650.51
2018-01-13T12:10:37.945Z,101651.73
2018-01-13T12:13:05.505Z,101655.27
2018-01-13T12:15:33.280Z,101657.61
2018-01-13T12:18:00.816Z,101651.20
2018-01-13T12:20:28.380Z,101653.61
2018-01-13T12:22:56.079Z,101647.05
2018-01-13T12:25:23.705Z,101640.48
2018-01-13T12:27:51.528Z,101643.31
2018-01-13T12:30:19.049Z,101636.23
2018-01-13T12:32:46.534Z,101637.22
2018-01-13T12:35:14.074Z,101634.44
2018-01-13T12:37:41.737Z,101626.72
2018-01-13T12:40:09.797Z,101628.25
2018-01-13T12:42:37.674Z,101628.03
2018-01-13T12:45:05.212Z,101627.75
2018-01-13T12:47:32.714Z,101626.13
2018-01-13T12:50:00.217Z,101629.45
2018-01-13T12:52:27.835Z,101617.42
2018-01-13T12:54:55.449Z,101614.52
2018-01-13T12:57:23.016Z,101610.75
2018-01-13T12:59:50.561Z,101606.02
2018-01-13T13:02:18.181Z,101612.27
2018-01-13T13:04:45.671Z,101609.05
2018-01-13T13:07:13.295Z,101600.87
2018-01-13T13:09:40.769Z,101608.64
2018-01-13T13:12:08.415Z,101604.92
2018-01-13T13:14:36.023Z,101597.05
2018-01-13T13:17:03.545Z,101599.25
2018-01-13T13:19:31.081Z,101598.25
2018-01-13T13:21:58.576Z,101588.77
2018-01-13T13:24:26.039Z,101593.95
2018-01-13T13:26:53.554Z,101596.31
2018-01-13T13:29:21.162Z,101588.66
2018-01-13T13:31:48.659Z,101591.32
2018-01-13T13:34:16.387Z,101594.02
2018-01-13T13:36:43.990Z,101583.92
2018-01-13T13:39:11.531Z,101598.78
2018-01-13T13:41:40.018Z,101593.13
2018-01-13T13:44:18.191Z,101591.80
2018-01-13T13:46:45.708Z,101602.61
2018-01-13T13:49:13.257Z,101605.01
2018-01-13T13:51:40.767Z,101601.06
2018-01-13T13:54:22.532Z,101605.69
2018-01-13T13:56:50.078Z,101606.12
2018-01-13T13:59:17.745Z,101595.72
2018-01-13T14:01:45.362Z,101593.77
2018-01-13T14:04:12.920Z,101597.39
2018-01-13T14:06:40.453Z,101597.28
2018-01-13T14:09:08.790Z,101594.77
2018-01-13T14:11:36.814Z,101595.99
2018-01-13T14:14:04.470Z,101594.67
2018-01-13T14:16:32.071Z,101593.36
2018-01-13T14:18:59.632Z,101599.13
2018-01-13T14:21:27.165Z,101596.82
2018-01-13T14:23:54.679Z,101607.20
2018-01-13T14:26:22.301Z,101605.60
2018-01-13T14:28:50.085Z,101601.87
2018-01-13T14:31:17.701Z,101598.82
2018-01-13T14:33:45.241Z,101599.63
2018-01-13T14:36:12.769Z,101601.33
2018-01-13T14:38:40.264Z,101599.48
2018-01-13T14:41:07.937Z,101602.32
2018-01-13T14:43:35.425Z,101596.28
2018-01-13T14:46:03.378Z,101601.65
2018-01-13T14:48:30.905Z,101600.74
2018-01-13T14:50:58.434Z,101601.30
2018-01-13T14:53:26.137Z,101599.98
2018-01-13T14:55:53.673Z,101595.15
2018-01-13T14:58:21.349Z,101592.00
2018-01-13T15:00:48.844Z,101593.09
2018-01-13T15:03:16.386Z,101584.02
2018-01-13T15:05:43.925Z,101582.61
2018-01-13T15:08:11.487Z,101587.27
2018-01-13T15:10:39.150Z,101585.95
2018-01-13T15:13:06.623Z,101588.59
2018-01-13T15:15:34.216Z,101582.91
2018-01-13T15:18:01.793Z,101583.89
2018-01-13T15:20:29.334Z,101581.87
2018-01-13T15:22:56.878Z,101584.42
2018-01-13T15:25:24.533Z,101588.64
2018-01-13T15:27:52.116Z,101596.41
2018-01-13T15:30:19.651Z,101593.50
2018-01-13T15:32:48.316Z,101596.61
2018-01-13T15:35:15.848Z,101600.23
2018-01-13T15:37:43.291Z,101601.86
2018-01-13T15:40:10.853Z,101607.62
2018-01-13T15:42:38.566Z,101606.00
2018-01-13T15:45:06.617Z,101603.91
2018-01-13T15:47:35.035Z,101609.25
2018-01-13T15:50:02.561Z,101607.63
2018-01-13T15:52:30.031Z,101610.46
2018-01-13T15:54:57.592Z,101603.08
2018-01-13T15:57:25.288Z,101602.19
2018-01-13T15:59:52.836Z,101612.58
2018-01-13T16:02:20.441Z,101605.92
2018-01-13T16:04:48.078Z,101608.76
2018-01-13T16:07:15.612Z,101604.71
2018-01-13T16:09:43.226Z,101602.09
2018-01-13T16:12:10.771Z,101598.06
2018-01-13T16:14:38.325Z,101596.16
2018-01-13T16:17:06.076Z,101596.25
2018-01-13T16:19:33.811Z,101597.78
2018-01-13T16:22:01.279Z,101597.16
2018-01-13T16:24:28.811Z,101597.83
2018-01-13T16:26:56.678Z,101590.38
2018-01-13T16:29:24.430Z,101593.41
2018-01-13T16:31:51.970Z,101593.99
2018-01-13T16:34:19.510Z,101592.00
2018-01-13T16:36:46.989Z,101593.32
2018-01-13T16:39:14.536Z,101601.81
2018-01-13T16:41:42.096Z,101599.47
2018-01-13T16:44:09.590Z,101595.86
2018-01-13T16:46:37.165Z,101591.33
2018-01-13T16:49:04.914Z,101593.85
2018-01-13T16:51:32.413Z,101594.95
2018-01-13T16:53:59.996Z,101605.55
2018-01-13T16:56:27.773Z,101591.33
2018-01-13T16:58:55.260Z,101599.02
2018-01-13T17:01:22.835Z,101602.64
2018-01-13T17:03:50.341Z,101590.94
2018-01-13T17:06:17.888Z,101592.64
2018-01-13T17:08:45.465Z,101588.61
2018-01-13T17:11:12.955Z,101593.33
2018-01-13T17:13:40.505Z,101588.84
2018-01-13T17:16:08.066Z,101586.22
2018-01-13T17:18:35.550Z,101590.98
2018-01-13T17:21:03.222Z,101590.16
2018-01-13T17:23:30.763Z,101580.77
2018-01-13T17:25:58.311Z,101583.33
2018-01-13T17:28:25.953Z,101583.80
2018-01-13T17:30:53.537Z,101584.60
2018-01-13T17:33:30.696Z,101577.66
2018-01-13T17:35:58.282Z,101577.66
2018-01-13T17:38:25.992Z,101579.45
2018-01-13T17:40:53.615Z,101577.16
2018-01-13T17:43:21.153Z,101578.05
2018-01-13T17:45:48.681Z,101575.63
2018-01-13T17:48:16.195Z,101574.31
2018-01-13T17:50:43.779Z,101583.59
2018-01-13T17:53:11.548Z,101574.62
2018-01-13T17:55:39.474Z,101575.83
2018-01-13T17:58:07.085Z,101572.30
2018-01-13T18:00:35.006Z,101568.47
2018-01-13T18:03:03.099Z,101572.89
2018-01-13T18:05:30.626Z,101573.61
2018-01-13T18:07:58.370Z,101566.23
2018-01-13T18:10:25.987Z,101568.47
2018-01-13T18:12:54.442Z,101567.05
2018-01-13T18:15:22.121Z,101569.99
2018-01-13T18:17:49.761Z,101573.41
2018-01-13T18:20:17.312Z,101571.30
2018-01-13T18:22:49.942Z,101576.83
2018-01-13T18:25:17.471Z,101573.20
2018-01-13T18:27:45.343Z,101572.00
2018-01-13T18:30:12.951Z,101571.58
2018-01-13T18:32:40.666Z,101578.24
2018-01-13T18:35:08.418Z,101574.00
2018-01-13T18:37:36.151Z,101582.07
2018-01-13T18:40:05.177Z,101579.64
2018-01-13T18:42:33.046Z,101589.52
2018-01-13T18:45:00.665Z,101581.95
2018-01-13T18:47:28.320Z,101595.91
2018-01-13T18:49:55.916Z,101588.03
2018-01-13T18:52:28.708Z,101589.44
2018-01-13T18:54:57.149Z,101597.21
2018-01-13T18:57:24.909Z,101593.53
2018-01-13T18:59:52.576Z,101576.89
2018-01-13T19:02:20.432Z,101570.65
2018-01-13T19:04:48.075Z,101577.19
2018-01-13T19:07:15.622Z,101582.49
2018-01-13T19:09:43.211Z,101584.64
2018-01-13T19:12:10.811Z,101584.55
2018-01-13T19:14:38.375Z,101596.13
2018-01-13T19:17:05.940Z,101595.66
2018-01-13T19:19:33.582Z,101596.66
2018-01-13T19:22:01.165Z,101603.98
2018-01-13T19:24:28.952Z,101600.57
2018-01-13T19:26:56.416Z,101586.84
2018-01-13T19:29:23.899Z,101591.48
2018-01-13T19:31:51.521Z,101593.91
2018-01-13T19:34:19.039Z,101581.81
2018-01-13T19:36:46.593Z,101592.41
2018-01-13T19:39:14.139Z,101581.28
2018-01-13T19:41:41.701Z,101580.59
2018-01-13T19:44:10.218Z,101579.64
2018-01-13T19:46:38.193Z,101578.44
2018-01-13T19:49:05.764Z,101579.37
2018-01-13T19:51:33.295Z,101580.80
2018-01-13T19:54:00.824Z,101581.80
2018-01-13T19:56:28.404Z,101581.80
2018-01-13T19:58:55.927Z,101576.75
2018-01-13T20:01:23.522Z,101580.60
2018-01-13T20:03:51.434Z,101577.88
2018-01-13T20:06:19.007Z,101579.50
2018-01-13T20:08:46.485Z,101570.01
2018-01-13T20:11:14.038Z,101576.58
2018-01-13T20:13:41.601Z,101568.51
2018-01-13T20:16:09.379Z,101561.85
2018-01-13T20:18:36.920Z,101564.36
2018-01-13T20:21:04.732Z,101564.77
2018-01-13T20:23:32.270Z,101555.49
2018-01-13T20:25:59.852Z,101557.01
2018-01-13T20:28:27.502Z,101559.85
2018-01-13T20:30:55.068Z,101565.19
2018-01-13T20:33:22.540Z,101556.49
2018-01-13T20:35:50.277Z,101562.27
2018-01-13T20:38:18.017Z,101560.53
2018-01-13T20:40:45.549Z,101558.52
2018-01-13T20:43:13.527Z,101557.42
2018-01-13T20:45:41.173Z,101558.53
2018-01-13T20:48:08.808Z,101552.29
2018-01-13T20:50:36.293Z,101555.90
2018-01-13T20:53:03.819Z,101555.80
2018-01-13T20:55:31.373Z,101554.27
2018-01-13T20:57:58.939Z,101553.39
2018-01-13T21:00:26.602Z,101551.55
2018-01-13T21:02:54.075Z,101552.55
2018-01-13T21:05:21.636Z,101541.27
2018-01-13T21:07:49.157Z,101540.14
2018-01-13T21:10:16.715Z,101537.52
2018-01-13T21:12:44.304Z,101540.24
2018-01-13T21:15:11.825Z,101542.94
2018-01-13T21:17:39.423Z,101539.73
2018-01-13T21:20:06.963Z,101540.31
2018-01-13T21:22:34.544Z,101545.55
2018-01-13T21:25:02.056Z,101551.52
2018-01-13T21:27:29.690Z,101546.48
2018-01-13T21:29:57.234Z,101545.27
2018-01-13T21:32:24.833Z,101538.98
2018-01-13T21:34:52.381Z,101534.46
2018-01-13T21:37:19.871Z,101529.80
2018-01-13T21:39:47.368Z,101541.32
2018-01-13T21:42:14.858Z,101538.40
2018-01-13T21:44:42.373Z,101531.23
2018-01-13T21:47:09.987Z,101524.77
2018-01-13T21:49:37.824Z,101528.49
2018-01-13T21:52:05.601Z,101533.84
2018-01-13T21:54:33.326Z,101533.16
2018-01-13T21:57:00.920Z,101534.16
2018-01-13T21:59:28.462Z,101537.99
2018-01-13T22:01:56.043Z,101537.58
2018-01-13T22:04:23.628Z,101533.53
2018-01-13T22:06:51.152Z,101531.13
2018-01-13T22:09:18.699Z,101532.95
2018-01-13T22:11:46.353Z,101534.56
2018-01-13T22:14:13.812Z,101528.50
2018-01-13T22:16:41.498Z,101530.53
2018-01-13T22:19:09.295Z,101521.84
2018-01-13T22:21:36.885Z,101525.39
2018-01-13T22:24:04.553Z,101525.76
2018-01-13T22:26:32.812Z,101519.42
2018-01-13T22:29:00.289Z,101520.53
2018-01-13T22:31:27.818Z,101528.28
2018-01-13T22:33:55.401Z,101522.23
2018-01-13T22:36:22.910Z,101519.72
2018-01-13T22:38:52.004Z,101514.78
2018-01-13T22:41:19.515Z,101517.88
2018-01-13T22:43:46.987Z,101509.53
2018-01-13T22:46:15.477Z,101511.95
2018-01-13T22:48:43.030Z,101510.97
2018-01-13T22:51:10.591Z,101511.66
2018-01-13T22:53:38.342Z,101511.44
2018-01-13T22:56:05.966Z,101519.09
2018-01-13T22:58:33.546Z,101518.70
2018-01-13T23:01:01.132Z,101521.07
2018-01-13T23:03:28.615Z,101521.61
2018-01-13T23:05:56.182Z,101529.39
2018-01-13T23:08:24.556Z,101515.69
2018-01-13T23:10:52.258Z,101513.53
2018-01-13T23:13:21.040Z,101517.66
2018-01-13T23:15:48.502Z,101523.20
2018-01-13T23:18:16.122Z,101518.22
2018-01-13T23:20:43.576Z,101518.52
2018-01-13T23:23:11.568Z,101518.82
2018-01-13T23:25:39.096Z,101518.61
2018-01-13T23:28:06.597Z,101517.50
2018-01-13T23:30:34.211Z,101518.81
2018-01-13T23:33:01.755Z,101522.74
2018-01-13T23:35:29.300Z,101520.41
2018-01-13T23:37:57.003Z,101514.25
2018-01-13T23:40:24.851Z,101515.16
2018-01-13T23:42:52.580Z,101507.50
2018-01-13T23:45:20.125Z,101503.58
2018-01-13T23:47:47.668Z,101503.48
2018-01-13T23:50:15.164Z,101506.31
2018-01-13T23:52:42.662Z,101514.80
2018-01-13T23:55:10.296Z,101512.55
2018-01-13T23:57:37.840Z,101511.34
